Time;durP1;ratioP1;P1;durP2;ratioP2;P2;SDS_P1;SDS_P2;PMS_P1;PMS_P2;Temp;Humidity;BMP_temperature;BMP_pressure;BME280_temperature;BME280_humidity;BME280_pressure;Samples;Min_cycle;Max_cycle;Signal;HPM_P1;HPM_P2
2023/04/16 00:01:45;;;;;;;0.40;0.40;;;21.50;48.40;;;;;;5115782;27;87001;-61
2023/04/16 00:04:13;;;;;;;0.87;0.50;;;21.50;48.50;;;;;;5125294;27;86336;-61
2023/04/16 00:06:41;;;;;;;2.87;0.50;;;21.50;49.00;;;;;;5111029;27;88015;-61
2023/04/16 00:09:09;;;;;;;3.80;0.60;;;21.50;48.30;;;;;;5121633;27;88851;-61
2023/04/16 00:11:39;;;;;;;0.37;0.30;;;21.50;48.70;;;;;;5116227;27;87728;-61
2023/04/16 00:14:07;;;;;;;1.00;0.43;;;21.40;48.50;;;;;;5112880;27;88082;-62
2023/04/16 00:16:35;;;;;;;1.20;0.53;;;21.50;48.50;;;;;;5112311;27;89107;-61
2023/04/16 00:19:03;;;;;;;0.87;0.60;;;21.50;48.90;;;;;;5103255;27;87679;-61
2023/04/16 00:21:31;;;;;;;0.70;0.70;;;21.40;48.70;;;;;;5114523;27;87147;-62
2023/04/16 00:23:59;;;;;;;2.17;0.57;;;21.40;48.90;;;;;;5107011;27;88251;-62
2023/04/16 00:26:27;;;;;;;1.23;0.63;;;21.40;49.20;;;;;;5104046;27;88707;-62
2023/04/16 00:28:56;;;;;;;0.43;0.43;;;21.40;49.10;;;;;;5112897;27;89022;-61
2023/04/16 00:31:28;;;;;;;0.73;0.33;;;21.40;49.40;;;;;;5108848;27;87031;-61
2023/04/16 00:33:56;;;;;;;0.63;0.60;;;21.40;49.50;;;;;;5123827;27;87021;-61
2023/04/16 00:36:24;;;;;;;0.23;0.23;;;21.40;49.80;;;;;;5113883;27;90125;-62
2023/04/16 00:38:52;;;;;;;0.37;0.37;;;21.50;50.00;;;;;;5117793;27;89577;-62
2023/04/16 00:41:21;;;;;;;0.87;0.80;;;21.40;49.90;;;;;;5115335;27;86926;-62
2023/04/16 00:43:50;;;;;;;0.30;0.30;;;21.40;50.00;;;;;;5116858;27;87113;-61
2023/04/16 00:46:20;;;;;;;1.83;0.87;;;21.50;50.30;;;;;;5102833;27;89320;-62
2023/04/16 00:48:48;;;;;;;0.40;0.40;;;21.40;50.60;;;;;;5103098;27;88671;-62
2023/04/16 00:51:16;;;;;;;2.53;0.80;;;21.40;50.40;;;;;;5103441;27;87044;-61
2023/04/16 00:53:44;;;;;;;0.80;0.50;;;21.50;50.50;;;;;;5104097;27;86324;-61
2023/04/16 00:56:12;;;;;;;0.47;0.47;;;21.50;50.70;;;;;;5102743;27;89552;-61
2023/04/16 00:58:40;;;;;;;0.57;0.53;;;21.50;50.80;;;;;;5113634;27;89258;-62
2023/04/16 01:01:08;;;;;;;1.63;0.50;;;21.40;51.40;;;;;;5110952;27;88812;-61
2023/04/16 01:03:39;;;;;;;4.13;0.97;;;21.50;51.50;;;;;;5102490;27;86923;-61
2023/04/16 01:06:08;;;;;;;0.50;0.40;;;21.50;51.40;;;;;;5102282;27;89115;-61
2023/04/16 01:08:36;;;;;;;0.40;0.40;;;21.40;52.00;;;;;;5103695;27;89537;-62
2023/04/16 01:11:04;;;;;;;2.07;0.80;;;21.40;51.90;;;;;;5113003;27;87066;-61
2023/04/16 01:13:33;;;;;;;0.60;0.60;;;21.40;52.30;;;;;;5102677;27;87214;-62
2023/04/16 01:16:01;;;;;;;0.40;0.40;;;21.40;51.70;;;;;;5115062;27;88960;-61
2023/04/16 01:18:29;;;;;;;0.70;0.40;;;21.40;51.50;;;;;;5103273;27;89082;-61
2023/04/16 01:20:58;;;;;;;1.27;0.53;;;21.40;52.30;;;;;;5107342;27;87161;-61
2023/04/16 01:23:26;;;;;;;1.43;0.90;;;21.40;52.30;;;;;;5101176;27;87047;-61
2023/04/16 01:25:54;;;;;;;0.83;0.60;;;21.40;52.30;;;;;;5101964;27;89845;-62
2023/04/16 01:28:22;;;;;;;2.57;0.70;;;21.40;52.10;;;;;;5102745;27;89935;-61
2023/04/16 01:30:50;;;;;;;0.67;0.67;;;21.40;52.20;;;;;;5102938;27;87052;-61
2023/04/16 01:33:18;;;;;;;0.70;0.50;;;21.40;52.40;;;;;;5102817;27;87632;-61
2023/04/16 01:35:46;;;;;;;0.60;0.60;;;21.40;52.50;;;;;;5102086;27;89114;-61
2023/04/16 01:38:16;;;;;;;4.87;0.70;;;21.40;52.50;;;;;;5101405;27;88859;-61
2023/04/16 01:40:43;;;;;;;2.17;0.60;;;21.40;53.00;;;;;;5103401;27;87002;-61
2023/04/16 01:43:11;;;;;;;1.53;0.80;;;21.40;52.90;;;;;;5117173;27;86362;-61
2023/04/16 01:45:39;;;;;;;0.20;0.20;;;21.30;52.80;;;;;;5105606;27;89033;-62
2023/04/16 01:48:07;;;;;;;1.10;0.50;;;21.30;53.10;;;;;;5103129;27;87769;-62
2023/04/16 01:50:35;;;;;;;2.00;0.70;;;21.30;53.00;;;;;;5102188;27;87979;-61
2023/04/16 01:53:03;;;;;;;0.80;0.30;;;21.40;53.30;;;;;;5102417;27;87039;-61
2023/04/16 01:55:33;;;;;;;1.27;0.60;;;21.40;54.20;;;;;;5102861;27;88986;-61
2023/04/16 01:58:01;;;;;;;1.10;0.60;;;21.30;54.10;;;;;;5103035;27;89395;-62
2023/04/16 02:00:29;;;;;;;1.03;0.57;;;21.30;54.20;;;;;;5102832;27;86994;-61
2023/04/16 02:02:57;;;;;;;0.30;0.30;;;21.30;54.50;;;;;;5102436;27;87007;-62
2023/04/16 02:05:25;;;;;;;0.50;0.50;;;21.30;55.80;;;;;;5103467;27;89151;-61
2023/04/16 02:07:54;;;;;;;0.50;0.47;;;;;;;;;;5106371;27;88919;-62
2023/04/16 02:10:22;;;;;;;0.43;0.43;;;21.30;51.50;;;;;;5106499;27;86740;-61
2023/04/16 02:12:51;;;;;;;1.83;0.60;;;21.30;52.80;;;;;;5105531;27;86996;-62
2023/04/16 02:15:19;;;;;;;0.70;0.70;;;21.30;53.60;;;;;;5105383;27;89795;-61
2023/04/16 02:17:49;;;;;;;1.23;0.40;;;21.30;54.40;;;;;;5105682;27;89776;-61
2023/04/16 02:20:18;;;;;;;0.40;0.40;;;21.30;55.40;;;;;;5106193;27;86973;-61
2023/04/16 02:22:46;;;;;;;0.37;0.37;;;21.30;56.10;;;;;;5106204;27;86920;-61
2023/04/16 02:25:14;;;;;;;0.63;0.40;;;21.40;58.20;;;;;;5105552;27;89225;-61
2023/04/16 02:27:41;;;;;;;0.40;0.40;;;21.30;60.60;;;;;;5105162;27;88785;-61
2023/04/16 02:30:12;;;;;;;1.37;0.50;;;21.40;59.10;;;;;;5108244;27;87100;-61
2023/04/16 02:32:40;;;;;;;0.43;0.43;;;21.30;58.10;;;;;;5102872;27;86447;-61
2023/04/16 02:35:08;;;;;;;0.40;0.40;;;21.30;60.10;;;;;;5108766;27;89162;-62
2023/04/16 02:37:39;;;;;;;0.30;0.30;;;21.30;59.70;;;;;;5098306;27;87070;-62
2023/04/16 02:40:09;;;;;;;0.73;0.60;;;21.30;59.40;;;;;;5101072;27;88023;-62
2023/04/16 02:42:36;;;;;;;0.50;0.50;;;21.30;60.60;;;;;;5112477;27;87066;-62
2023/04/16 02:45:05;;;;;;;1.87;1.00;;;21.30;61.10;;;;;;5101580;27;88773;-61
2023/04/16 02:47:35;;;;;;;1.80;0.57;;;;;;;;;;5109074;27;89331;-62
2023/04/16 02:50:03;;;;;;;1.13;0.50;;;21.30;55.10;;;;;;5125295;27;86917;-62
2023/04/16 02:52:32;;;;;;;0.37;0.30;;;21.30;57.50;;;;;;5118493;27;86986;-62
2023/04/16 02:55:00;;;;;;;2.23;0.37;;;21.20;61.80;;;;;;5114218;27;89102;-62
2023/04/16 02:57:28;;;;;;;1.03;0.50;;;21.30;61.90;;;;;;5105926;27;88874;-62
2023/04/16 02:59:56;;;;;;;0.40;0.33;;;21.30;58.50;;;;;;5109379;27;87143;-62
2023/04/16 03:02:24;;;;;;;0.60;0.60;;;21.30;59.60;;;;;;5106298;27;88081;-62
2023/04/16 03:04:53;;;;;;;1.43;0.43;;;21.30;58.80;;;;;;5102059;27;89930;-62
2023/04/16 03:07:21;;;;;;;0.30;0.30;;;21.30;58.50;;;;;;5098261;27;89572;-62
2023/04/16 03:09:49;;;;;;;0.30;0.30;;;21.30;59.00;;;;;;5102933;27;87346;-62
2023/04/16 03:12:17;;;;;;;0.60;0.60;;;21.20;59.20;;;;;;5106234;27;88165;-62
2023/04/16 03:14:45;;;;;;;1.00;0.50;;;21.20;60.00;;;;;;5102854;27;88466;-62
2023/04/16 03:17:13;;;;;;;0.30;0.30;;;21.30;57.80;;;;;;5104540;27;88953;-62
2023/04/16 03:19:41;;;;;;;0.40;0.40;;;21.30;58.70;;;;;;5102874;27;87145;-62
2023/04/16 03:22:10;;;;;;;0.30;0.30;;;21.30;58.30;;;;;;5104396;27;86239;-62
2023/04/16 03:24:38;;;;;;;0.40;0.40;;;21.20;60.10;;;;;;5102359;27;89383;-62
2023/04/16 03:27:06;;;;;;;0.40;0.40;;;21.20;59.80;;;;;;5103423;27;88764;-62
2023/04/16 03:29:36;;;;;;;1.27;0.50;;;21.20;61.40;;;;;;5099194;27;88335;-62
2023/04/16 03:32:04;;;;;;;2.00;1.07;;;21.30;61.40;;;;;;5102789;27;87732;-62
2023/04/16 03:34:32;;;;;;;2.20;0.50;;;21.20;58.70;;;;;;5102183;27;88850;-62
2023/04/16 03:37:00;;;;;;;0.43;0.40;;;21.30;58.70;;;;;;5102106;27;88983;-62
2023/04/16 03:39:29;;;;;;;0.43;0.43;;;21.20;58.90;;;;;;5103020;27;88403;-62
2023/04/16 03:41:57;;;;;;;0.93;0.73;;;21.20;58.50;;;;;;5098907;27;86949;-62
2023/04/16 03:44:25;;;;;;;0.40;0.40;;;21.20;60.20;;;;;;5103068;27;89140;-62
2023/04/16 03:46:53;;;;;;;0.43;0.43;;;21.20;62.10;;;;;;5104038;27;88823;-62
2023/04/16 03:49:21;;;;;;;0.40;0.40;;;21.20;60.20;;;;;;5102493;27;88440;-62
2023/04/16 03:51:49;;;;;;;0.30;0.30;;;21.20;62.70;;;;;;5102859;27;86955;-62
2023/04/16 03:54:17;;;;;;;0.70;0.70;;;21.20;61.90;;;;;;5101057;27;89644;-61
2023/04/16 03:56:50;;;;;;;4.97;0.70;;;21.30;63.20;;;;;;5104102;27;91488;-61
2023/04/16 03:59:18;;;;;;;0.60;0.60;;;21.20;59.50;;;;;;5102396;27;88198;-62
2023/04/16 04:01:46;;;;;;;0.83;0.50;;;21.20;60.50;;;;;;5102561;27;87165;-61
2023/04/16 04:04:15;;;;;;;1.60;0.43;;;21.10;67.20;;;;;;5103034;27;89146;-62
2023/04/16 04:06:44;;;;;;;0.50;0.50;;;21.30;59.60;;;;;;5101787;27;88519;-62
2023/04/16 04:09:12;;;;;;;2.23;0.53;;;21.20;57.70;;;;;;5102773;27;87549;-62
2023/04/16 04:11:40;;;;;;;0.40;0.40;;;21.30;58.30;;;;;;5102378;27;86275;-62
2023/04/16 04:14:10;;;;;;;1.43;0.57;;;21.20;58.60;;;;;;5104001;27;89174;-62
2023/04/16 04:16:38;;;;;;;0.43;0.40;;;21.20;59.10;;;;;;5109882;27;88856;-62
2023/04/16 04:19:06;;;;;;;0.70;0.50;;;21.20;59.20;;;;;;5102155;27;87832;-62
2023/04/16 04:21:34;;;;;;;0.50;0.50;;;21.20;64.40;;;;;;5102477;27;87057;-61
2023/04/16 04:24:02;;;;;;;0.37;0.37;;;21.20;57.80;;;;;;5102656;27;89033;-62
2023/04/16 04:26:30;;;;;;;1.97;0.70;;;21.20;56.80;;;;;;5102204;27;87714;-62
2023/04/16 04:28:58;;;;;;;2.00;0.50;;;21.20;56.70;;;;;;5104849;27;88686;-62
2023/04/16 04:31:27;;;;;;;1.03;0.53;;;21.20;57.10;;;;;;5102142;27;86999;-62
2023/04/16 04:33:55;;;;;;;0.60;0.50;;;21.20;56.50;;;;;;5101935;27;89181;-61
2023/04/16 04:36:23;;;;;;;2.63;0.90;;;21.20;56.60;;;;;;5101732;27;87656;-62
2023/04/16 04:38:51;;;;;;;0.53;0.53;;;21.20;56.60;;;;;;5101714;27;87210;-62
2023/04/16 04:41:20;;;;;;;0.50;0.50;;;21.30;56.80;;;;;;5101931;27;87094;-61
2023/04/16 04:43:48;;;;;;;0.50;0.50;;;21.20;56.70;;;;;;5101521;27;90099;-62
2023/04/16 04:46:16;;;;;;;1.17;0.63;;;21.20;57.00;;;;;;5103120;27;89855;-62
2023/04/16 04:48:45;;;;;;;2.33;0.60;;;21.20;57.30;;;;;;5099675;27;87116;-62
2023/04/16 04:51:13;;;;;;;3.90;0.67;;;21.20;57.50;;;;;;5102615;27;87064;-62
2023/04/16 04:53:41;;;;;;;0.40;0.40;;;21.10;58.10;;;;;;5102665;27;88863;-62
2023/04/16 04:56:09;;;;;;;0.90;0.87;;;21.10;57.50;;;;;;5097884;27;88683;-62
2023/04/16 04:58:40;;;;;;;2.83;0.93;;;21.10;57.30;;;;;;5101651;27;88254;-62
2023/04/16 05:01:07;;;;;;;0.73;0.50;;;21.10;57.40;;;;;;5101958;27;86252;-62
2023/04/16 05:03:36;;;;;;;1.57;0.73;;;21.10;57.60;;;;;;5100978;27;89176;-61
2023/04/16 05:06:06;;;;;;;0.60;0.60;;;21.10;58.90;;;;;;5100474;27;89083;-62
2023/04/16 05:08:34;;;;;;;0.83;0.50;;;21.10;58.80;;;;;;5098068;27;88086;-62
2023/04/16 05:11:02;;;;;;;1.10;0.50;;;21.10;59.70;;;;;;5105314;27;86992;-61
2023/04/16 05:13:30;;;;;;;0.50;0.50;;;21.10;61.80;;;;;;5101345;27;89044;-62
2023/04/16 05:15:58;;;;;;;0.30;0.30;;;21.10;58.20;;;;;;5101037;27;89088;-62
2023/04/16 05:18:26;;;;;;;0.33;0.33;;;21.10;59.20;;;;;;5101503;27;87102;-62
2023/04/16 05:20:54;;;;;;;0.60;0.50;;;21.10;60.30;;;;;;5101313;27;87295;-62
2023/04/16 05:23:24;;;;;;;0.60;0.60;;;21.10;60.30;;;;;;5100954;27;89111;-62
2023/04/16 05:25:52;;;;;;;0.30;0.30;;;21.10;61.70;;;;;;5102986;27;88290;-62
2023/04/16 05:28:19;;;;;;;0.50;0.50;;;21.10;56.30;;;;;;5105903;27;87018;-62
2023/04/16 05:30:47;;;;;;;0.43;0.43;;;21.20;55.80;;;;;;5101507;27;86972;-62
2023/04/16 05:33:15;;;;;;;0.93;0.63;;;21.20;56.20;;;;;;5101415;27;89962;-61
2023/04/16 05:35:44;;;;;;;0.43;0.30;;;21.20;55.80;;;;;;5102817;27;89716;-62
2023/04/16 05:38:12;;;;;;;0.70;0.37;;;21.20;55.90;;;;;;5101102;27;86979;-62
2023/04/16 05:40:41;;;;;;;1.43;0.40;;;21.10;56.10;;;;;;5107179;27;88139;-62
2023/04/16 05:43:09;;;;;;;0.60;0.57;;;21.10;56.30;;;;;;5103031;27;89217;-62
2023/04/16 05:45:39;;;;;;;0.60;0.60;;;21.20;56.10;;;;;;5101397;27;88060;-61
2023/04/16 05:48:08;;;;;;;1.80;0.53;;;21.10;56.20;;;;;;5104553;27;86986;-62
2023/04/16 05:50:36;;;;;;;0.40;0.40;;;21.10;56.10;;;;;;5104698;27;86187;-62
2023/04/16 05:53:06;;;;;;;0.53;0.40;;;21.10;56.20;;;;;;5105684;27;89122;-62
2023/04/16 05:55:34;;;;;;;0.40;0.40;;;21.00;56.20;;;;;;5099869;27;88752;-62
2023/04/16 05:58:04;;;;;;;0.73;0.50;;;21.00;56.60;;;;;;5104212;27;89140;-62
2023/04/16 06:00:32;;;;;;;0.40;0.40;;;21.10;57.00;;;;;;5104567;27;87043;-62
2023/04/16 06:03:00;;;;;;;0.93;0.50;;;21.10;56.80;;;;;;5099789;27;89110;-62
2023/04/16 06:05:28;;;;;;;0.43;0.43;;;21.10;56.70;;;;;;5104108;27;87689;-62
2023/04/16 06:07:56;;;;;;;1.53;0.50;;;21.10;57.00;;;;;;5100271;27;87047;-62
2023/04/16 06:10:24;;;;;;;0.50;0.50;;;21.10;56.90;;;;;;5103760;27;86975;-62
2023/04/16 06:12:52;;;;;;;0.47;0.47;;;21.00;57.00;;;;;;5103339;27;88922;-62
2023/04/16 06:15:21;;;;;;;0.80;0.43;;;21.10;56.80;;;;;;5104147;27;88660;-62
2023/04/16 06:17:49;;;;;;;0.80;0.80;;;21.10;56.60;;;;;;5104393;27;87011;-62
2023/04/16 06:20:17;;;;;;;1.30;0.60;;;21.10;56.30;;;;;;5104458;27;86987;-62
2023/04/16 06:22:45;;;;;;;0.53;0.30;;;21.10;56.60;;;;;;5103323;27;89830;-62
2023/04/16 06:25:13;;;;;;;1.40;0.53;;;21.10;56.90;;;;;;5103788;27;89403;-62
2023/04/16 06:27:44;;;;;;;1.53;0.50;;;21.00;56.90;;;;;;5108131;27;87022;-63
2023/04/16 06:30:13;;;;;;;0.30;0.30;;;21.00;57.80;;;;;;5109070;27;86939;-63
2023/04/16 06:32:43;;;;;;;2.00;0.80;;;21.00;57.50;;;;;;5104244;27;89370;-62
2023/04/16 06:35:11;;;;;;;4.37;0.83;;;21.00;58.70;;;;;;5102959;27;88842;-64
2023/04/16 06:37:39;;;;;;;0.60;0.50;;;21.10;60.20;;;;;;5103744;27;87083;-63
2023/04/16 06:40:08;;;;;;;1.93;0.70;;;21.10;59.90;;;;;;5107527;27;86256;-64
2023/04/16 06:42:36;;;;;;;0.43;0.43;;;21.10;62.70;;;;;;5106931;27;89393;-63
2023/04/16 06:45:04;;;;;;;1.17;0.67;;;21.10;55.40;;;;;;5108020;27;88829;-62
2023/04/16 06:47:32;;;;;;;0.63;0.63;;;21.20;54.90;;;;;;5104764;27;87894;-65
2023/04/16 06:50:02;;;;;;;0.60;0.60;;;21.20;54.40;;;;;;5103460;27;87014;-70
2023/04/16 06:52:30;;;;;;;1.33;0.47;;;21.40;54.40;;;;;;5103841;27;89359;-64
2023/04/16 06:54:58;;;;;;;1.37;0.53;;;21.40;54.10;;;;;;5096406;27;89215;-63
2023/04/16 06:57:26;;;;;;;0.83;0.50;;;21.50;54.10;;;;;;5101924;27;87118;-63
2023/04/16 06:59:54;;;;;;;0.40;0.40;;;21.70;54.50;;;;;;5102860;27;87007;-63
2023/04/16 07:02:22;;;;;;;0.43;0.43;;;21.90;53.80;;;;;;5102949;27;89199;-64
2023/04/16 07:04:51;;;;;;;0.40;0.40;;;22.00;53.80;;;;;;5102889;27;87525;-64
2023/04/16 07:07:20;;;;;;;3.40;0.40;;;22.20;53.40;;;;;;5103245;27;87412;-64
2023/04/16 07:09:48;;;;;;;0.37;0.37;;;22.30;53.30;;;;;;5103288;27;87126;-64
2023/04/16 07:12:16;;;;;;;0.43;0.43;;;22.50;53.30;;;;;;5101931;27;89809;-64
2023/04/16 07:14:44;;;;;;;0.73;0.70;;;22.60;53.00;;;;;;5103193;27;89933;-64
2023/04/16 07:17:12;;;;;;;0.30;0.30;;;22.70;53.50;;;;;;5098732;27;88406;-64
2023/04/16 07:19:40;;;;;;;0.30;0.30;;;22.90;53.00;;;;;;5103044;27;86974;-65
2023/04/16 07:22:08;;;;;;;3.67;0.83;;;23.00;53.70;;;;;;5102963;27;89002;-64
2023/04/16 07:24:37;;;;;;;0.50;0.50;;;23.10;52.90;;;;;;5102469;27;88878;-65
2023/04/16 07:27:05;;;;;;;0.20;0.20;;;23.10;52.90;;;;;;5102892;27;87011;-64
2023/04/16 07:29:33;;;;;;;1.30;0.37;;;23.20;53.00;;;;;;5103011;27;86488;-62
2023/04/16 07:32:01;;;;;;;0.30;0.30;;;23.30;53.00;;;;;;5102252;27;89132;-64
2023/04/16 07:34:29;;;;;;;0.30;0.30;;;23.20;52.80;;;;;;5102041;27;88835;-64
2023/04/16 07:36:57;;;;;;;0.20;0.20;;;23.20;53.10;;;;;;5101759;27;88705;-65
2023/04/16 07:39:25;;;;;;;0.50;0.30;;;23.40;53.40;;;;;;5099087;27;87697;-65
2023/04/16 07:41:54;;;;;;;0.60;0.60;;;23.40;52.70;;;;;;5102832;27;89183;-65
2023/04/16 07:44:22;;;;;;;0.40;0.40;;;23.60;53.10;;;;;;5102878;27;88836;-65
2023/04/16 07:46:50;;;;;;;1.77;0.50;;;23.60;52.90;;;;;;5102662;27;87021;-65
2023/04/16 07:49:18;;;;;;;0.77;0.63;;;23.70;53.20;;;;;;5102917;27;87003;-64
2023/04/16 07:51:46;;;;;;;0.57;0.57;;;23.80;53.00;;;;;;5102628;27;89510;-65
2023/04/16 07:54:14;;;;;;;0.37;0.37;;;23.90;53.00;;;;;;5102936;27;88699;-64
2023/04/16 07:56:42;;;;;;;0.83;0.40;;;24.00;53.00;;;;;;5102090;27;87908;-63
2023/04/16 07:59:11;;;;;;;0.30;0.30;;;24.10;53.20;;;;;;5102099;27;86945;-63
2023/04/16 08:01:49;;;;;;;0.30;0.30;;;24.00;52.80;;;;;;5098845;27;89890;-63
2023/04/16 08:04:23;;;;;;;0.20;0.20;;;24.00;52.90;;;;;;5101954;27;89880;-63
2023/04/16 08:06:51;;;;;;;0.50;0.50;;;24.10;53.40;;;;;;5102863;27;87084;-63
2023/04/16 08:09:20;;;;;;;0.40;0.40;;;24.10;53.40;;;;;;5103114;27;86999;-62
2023/04/16 08:11:48;;;;;;;3.10;0.83;;;24.10;53.30;;;;;;5102051;27;89087;-62
2023/04/16 08:14:18;;;;;;;0.30;0.30;;;24.20;53.40;;;;;;5101381;27;88929;-63
2023/04/16 08:16:46;;;;;;;0.50;0.50;;;24.30;53.40;;;;;;5101504;27;87657;-63
2023/04/16 08:19:14;;;;;;;0.40;0.40;;;24.40;53.40;;;;;;5102328;27;86320;-63
2023/04/16 08:21:42;;;;;;;0.43;0.43;;;24.50;53.60;;;;;;5101418;27;89653;-62
2023/04/16 08:24:10;;;;;;;0.83;0.30;;;24.60;53.20;;;;;;5101746;27;88909;-62
2023/04/16 08:26:38;;;;;;;0.40;0.40;;;24.70;53.10;;;;;;5100894;27;88239;-63
2023/04/16 08:29:06;;;;;;;0.60;0.47;;;24.80;53.30;;;;;;5100739;27;87451;-62
2023/04/16 08:31:35;;;;;;;0.40;0.40;;;24.80;53.10;;;;;;5098367;27;89148;-63
2023/04/16 08:34:03;;;;;;;1.27;0.50;;;24.90;52.90;;;;;;5118717;27;89333;-66
2023/04/16 08:36:31;;;;;;;0.33;0.33;;;25.10;53.20;;;;;;5120008;27;87084;-62
2023/04/16 08:38:59;;;;;;;1.17;0.40;;;24.90;53.10;;;;;;5102384;27;86993;-64
2023/04/16 08:41:27;;;;;;;0.30;0.30;;;24.90;53.30;;;;;;5100284;27;89520;-63
2023/04/16 08:43:56;;;;;;;0.30;0.30;;;24.90;53.50;;;;;;5083386;27;88966;-63
2023/04/16 08:46:24;;;;;;;1.70;0.37;;;24.90;53.50;;;;;;5092931;27;89599;-63
2023/04/16 08:48:55;;;;;;;1.10;0.50;;;24.90;53.40;;;;;;5097243;27;88859;-63
2023/04/16 08:51:23;;;;;;;0.40;0.40;;;24.90;54.30;;;;;;5087580;27;90011;-62
2023/04/16 08:53:53;;;;;;;0.20;0.20;;;25.00;53.50;;;;;;5099529;27;89750;-62
2023/04/16 08:56:21;;;;;;;0.23;0.23;;;25.00;53.20;;;;;;5089030;27;87081;-63
2023/04/16 08:58:50;;;;;;;1.60;0.60;;;25.20;53.50;;;;;;5088382;27;86939;-62
2023/04/16 09:01:19;;;;;;;0.50;0.47;;;25.20;53.00;;;;;;5096005;27;89109;-62
2023/04/16 09:03:47;;;;;;;0.40;0.33;;;25.30;53.10;;;;;;5097484;27;89091;-63
2023/04/16 09:06:17;;;;;;;0.57;0.30;;;25.40;52.90;;;;;;5097741;27;87032;-62
2023/04/16 09:08:45;;;;;;;0.30;0.30;;;25.40;52.70;;;;;;5098833;27;86250;-63
2023/04/16 09:11:13;;;;;;;0.43;0.43;;;26.00;52.90;;;;;;5096399;27;87994;-62
2023/04/16 09:13:41;;;;;;;0.20;0.20;;;25.60;52.70;;;;;;5101676;27;88743;-63
2023/04/16 09:16:09;;;;;;;0.53;0.53;;;25.70;52.60;;;;;;5103608;27;88079;-63
2023/04/16 09:18:37;;;;;;;0.30;0.30;;;25.80;53.00;;;;;;5106090;27;87050;-63
2023/04/16 09:21:06;;;;;;;0.30;0.30;;;25.80;53.40;;;;;;5085358;27;89387;-63
2023/04/16 09:23:36;;;;;;;0.60;0.33;;;25.80;53.20;;;;;;5088141;27;88897;-63
2023/04/16 09:26:04;;;;;;;0.40;0.40;;;25.80;53.30;;;;;;5094348;27;88183;-63
2023/04/16 09:28:42;;;;;;;0.30;0.30;;;25.80;53.10;;;;;;5086992;27;87064;-63
2023/04/16 09:31:11;;;;;;;0.40;0.40;;;25.70;53.10;;;;;;5085666;27;89128;-63
2023/04/16 09:33:39;;;;;;;0.60;0.40;;;25.70;53.10;;;;;;5103324;27;88885;-64
2023/04/16 09:36:07;;;;;;;0.20;0.20;;;25.80;53.40;;;;;;5104559;27;87172;-64
2023/04/16 09:38:48;;;;;;;0.60;0.60;;;25.60;54.20;;;;;;5105417;27;86880;-64
2023/04/16 09:41:16;;;;;;;0.33;0.30;;;25.60;53.90;;;;;;5102382;27;90124;-63
2023/04/16 09:44:05;;;;;;;0.47;0.47;;;25.50;54.30;;;;;;5105165;27;89909;-63
2023/04/16 09:46:34;;;;;;;0.50;0.47;;;25.40;54.50;;;;;;5097572;27;87081;-63
2023/04/16 09:49:05;;;;;;;0.50;0.50;;;25.30;54.50;;;;;;5104462;27;87055;-63
2023/04/16 09:51:37;;;;;;;1.33;0.60;;;25.30;54.70;;;;;;5094483;27;89565;-62
2023/04/16 09:54:06;;;;;;;0.23;0.23;;;25.30;54.70;;;;;;5109255;27;87761;-62
2023/04/16 09:56:39;;;;;;;0.40;0.40;;;25.20;54.80;;;;;;5103710;27;87117;-59
2023/04/16 09:59:07;;;;;;;0.20;0.20;;;25.10;55.00;;;;;;5102860;27;86426;-60
2023/04/16 10:01:36;;;;;;;0.50;0.50;;;25.10;55.00;;;;;;5122440;27;88951;-62
2023/04/16 10:04:04;;;;;;;0.67;0.50;;;25.10;55.20;;;;;;5122344;27;89083;-61
2023/04/16 10:06:32;;;;;;;0.30;0.30;;;25.00;55.50;;;;;;5126217;27;88071;-61
2023/04/16 10:09:00;;;;;;;0.53;0.40;;;25.00;55.30;;;;;;5121440;27;87068;-61
2023/04/16 10:11:30;;;;;;;0.57;0.30;;;24.90;55.60;;;;;;5086812;27;88011;-61
2023/04/16 10:13:58;;;;;;;3.10;0.60;;;24.90;56.00;;;;;;5095114;27;88636;-60
2023/04/16 10:16:26;;;;;;;0.50;0.50;;;24.90;56.30;;;;;;5087857;27;87121;-60
2023/04/16 10:18:54;;;;;;;0.50;0.50;;;25.00;56.60;;;;;;5085085;27;86919;-60
2023/04/16 10:21:21;;;;;;;3.17;0.77;;;25.00;56.90;;;;;;5100528;27;88064;-60
2023/04/16 10:23:50;;;;;;;2.60;0.80;;;25.10;57.50;;;;;;5105333;27;88894;-60
2023/04/16 10:26:18;;;;;;;0.47;0.43;;;25.10;59.80;;;;;;5103756;27;87094;-60
2023/04/16 10:28:47;;;;;;;1.63;0.80;;;;;;;;;;5098058;27;87825;-60
2023/04/16 10:31:15;;;;;;;0.57;0.57;;;25.20;59.50;;;;;;5094359;27;89876;-60
2023/04/16 10:33:43;;;;;;;1.00;0.67;;;25.30;69.30;;;;;;5084911;27;90073;-60
2023/04/16 10:36:12;;;;;;;1.33;0.80;;;;;;;;;;5099008;27;86950;-60
2023/04/16 10:38:41;;;;;;;2.13;0.50;;;25.60;64.30;;;;;;5095064;27;88249;-60
2023/04/16 10:41:09;;;;;;;1.20;0.70;;;25.30;70.50;;;;;;5083084;27;89517;-60
2023/04/16 10:43:41;;;;;;;0.67;0.50;;;;;;;;;;5104493;27;88861;-60
2023/04/16 10:46:20;;;;;;;0.63;0.57;;;25.60;63.20;;;;;;5105240;27;86956;-62
2023/04/16 10:48:49;;;;;;;1.23;0.67;;;25.60;61.70;;;;;;5105341;27;86257;-63
2023/04/16 10:51:28;;;;;;;2.43;0.63;;;25.60;64.30;;;;;;5104859;27;89192;-63
2023/04/16 10:53:57;;;;;;;0.50;0.50;;;25.60;67.70;;;;;;5104885;27;88084;-66
2023/04/16 10:56:25;;;;;;;2.90;0.40;;;;;;;;;;5092832;27;88050;-63
2023/04/16 10:58:54;;;;;;;2.07;0.90;;;;;;;;;;5084441;27;87121;-63
2023/04/16 11:01:29;;;;;;;1.67;1.07;;;;;;;;;;5084259;27;88032;-64
2023/04/16 11:03:59;;;;;;;4.70;0.80;;;;;;;;;;5084545;27;88929;-63
2023/04/16 11:06:28;;;;;;;1.43;0.53;;;;;;;;;;5084797;27;87429;-62
2023/04/16 11:08:56;;;;;;;0.90;0.50;;;;;;;;;;5084591;27;87064;-62
2023/04/16 11:11:24;;;;;;;0.60;0.50;;;;;;;;;;5084444;27;89324;-62
2023/04/16 11:13:55;;;;;;;1.60;0.53;;;;;;;;;;5084396;27;88711;-61
2023/04/16 11:16:25;;;;;;;1.07;0.80;;;;;;;;;;5083740;27;87127;-62
2023/04/16 11:18:55;;;;;;;7.83;1.07;;;;;;;;;;5084457;27;87029;-62
2023/04/16 11:21:35;;;;;;;3.70;0.90;;;;;;;;;;5083785;27;88973;-61
2023/04/16 11:24:03;;;;;;;0.60;0.60;;;;;;;;;;5084502;27;89915;-63
2023/04/16 11:26:32;;;;;;;4.77;0.90;;;;;;;;;;5089601;27;86994;-62
2023/04/16 11:29:00;;;;;;;0.77;0.70;;;;;;;;;;5104808;27;86965;-62
2023/04/16 11:31:29;;;;;;;0.53;0.40;;;;;;;;;;5105155;27;89104;-62
2023/04/16 11:33:59;;;;;;;0.50;0.50;;;;;;;;;;5104669;27;89056;-62
2023/04/16 11:36:28;;;;;;;1.50;0.40;;;;;;;;;;5104291;27;87006;-62
2023/04/16 11:39:02;;;;;;;1.30;0.60;;;;;;;;;;5103751;27;86243;-62
2023/04/16 11:41:30;;;;;;;2.57;1.10;;;;;;;;;;5111188;27;89127;-62
2023/04/16 11:43:59;;;;;;;1.07;0.80;;;;;;;;;;5109422;27;88801;-65
2023/04/16 11:46:38;;;;;;;3.23;0.90;;;;;;;;;;5103296;27;88044;-62
2023/04/16 11:49:07;;;;;;;2.00;1.07;;;;;;;;;;5095849;27;86996;-62
2023/04/16 11:51:40;;;;;;;2.30;0.97;;;;;;;;;;5083417;27;89236;-63
2023/04/16 11:54:08;;;;;;;1.20;0.70;;;;;;;;;;5083503;27;87879;-63
2023/04/16 11:56:39;;;;;;;0.77;0.70;;;;;;;;;;5084300;27;86809;-62
2023/04/16 11:59:10;;;;;;;6.50;0.60;;;;;;;;;;5091720;27;87455;-64
2023/04/16 12:01:40;;;;;;;20.90;5.00;;;;;;;;;;5087375;27;89041;-62
2023/04/16 12:04:10;;;;;;;31.07;8.40;;;;;;;;;;5083887;27;87761;-63
2023/04/16 12:06:40;;;;;;;90.27;24.03;;;;;;;;;;5082863;27;86933;-63
2023/04/16 12:09:24;;;;;;;125.87;33.53;;;;;;;;;;5083226;27;86820;-64
2023/04/16 12:11:52;;;;;;;64.37;20.90;;;;;;;;;;5084795;27;90149;-62
2023/04/16 12:14:20;;;;;;;87.13;23.23;;;;;;;;;;5082607;27;88738;-62
2023/04/16 12:16:48;;;;;;;89.80;25.03;;;;;;;;;;5082623;27;86852;-64
2023/04/16 12:19:18;;;;;;;84.77;24.60;;;;;;;;;;5082633;27;87044;-64
2023/04/16 12:21:47;;;;;;;103.67;29.07;;;;;;;;;;5088686;27;87952;-63
2023/04/16 12:24:19;;;;;;;65.23;20.67;;;;;;;;;;5094634;27;88946;-63
2023/04/16 12:26:48;;;;;;;60.63;18.87;;;;;;;;;;5087944;27;87497;-63
2023/04/16 12:29:17;;;;;;;33.27;13.97;;;;;;;;;;5098460;27;86272;-63
2023/04/16 12:31:45;;;;;;;47.63;16.37;;;;;;;;;;5101102;27;89193;-62
2023/04/16 12:34:14;;;;;;;57.97;21.13;;;;;;;;;;5102685;27;89295;-63
2023/04/16 12:36:43;;;;;;;48.23;16.90;;;;;;;;;;5102232;27;87811;-63
2023/04/16 12:39:12;;;;;;;40.40;15.10;;;;;;;;;;5102556;27;86901;-63
2023/04/16 12:41:40;;;;;;;36.63;12.90;;;;;;;;;;5102815;27;89139;-63
2023/04/16 12:44:10;;;;;;;26.30;8.90;;;;;;;;;;5102413;27;89026;-63
2023/04/16 12:46:39;;;;;;;27.20;9.90;;;;;;;;;;5103122;27;87087;-63
2023/04/16 12:49:08;;;;;;;17.20;7.60;;;;;;;;;;5103057;27;86947;-63
2023/04/16 12:51:36;;;;;;;12.30;5.93;;;;;;;;;;5102984;27;89130;-62
2023/04/16 12:54:07;;;;;;;10.53;5.53;;;;;;;;;;5103368;27;88752;-62
2023/04/16 12:56:35;;;;;;;20.67;7.53;;;;;;;;;;5103355;27;87014;-61
2023/04/16 12:59:03;;;;;;;16.77;5.23;;;;;;;;;;5103422;27;87011;-62
2023/04/16 13:01:34;;;;;;;15.27;5.80;;;;;;;;;;5086379;27;90016;-63
2023/04/16 13:04:03;;;;;;;12.13;5.20;;;;;;;;;;5082299;27;89775;-62
2023/04/16 13:06:32;;;;;;;10.10;4.50;;;;;;;;;;5086882;27;87293;-62
2023/04/16 13:09:00;;;;;;;12.83;4.63;;;;;;;;;;5102921;27;86844;-62
2023/04/16 13:11:30;;;;;;;7.03;3.87;;;;;;;;;;5102354;27;89114;-62
2023/04/16 13:13:58;;;;;;;12.90;4.40;;;;;;;;;;5102403;27;87766;-62